createdAt,value
2023-05-16T00:01:18.471Z,83.35
2023-05-16T00:06:11.526Z,83.22
2023-05-16T00:11:04.868Z,83.41
2023-05-16T00:15:57.961Z,83.16
2023-05-16T00:20:52.157Z,83.03
2023-05-16T00:25:46.372Z,83.21
2023-05-16T00:30:39.424Z,83.38
2023-05-16T00:35:32.348Z,83.36
2023-05-16T00:40:25.552Z,83.52
2023-05-16T00:45:19.368Z,83.61
2023-05-16T00:50:12.343Z,83.64
2023-05-16T00:55:05.851Z,83.61
2023-05-16T01:00:00.706Z,83.71
2023-05-16T01:04:53.703Z,83.74
2023-05-16T01:09:46.610Z,83.66
2023-05-16T01:14:58.258Z,83.75
2023-05-16T01:20:02.245Z,83.80
2023-05-16T01:25:27.743Z,83.98
2023-05-16T01:30:21.546Z,83.77
2023-05-16T01:35:20.119Z,83.93
2023-05-16T01:40:21.042Z,83.98
2023-05-16T01:45:24.897Z,83.84
2023-05-16T01:50:21.301Z,83.85
2023-05-16T01:55:20.227Z,83.72
2023-05-16T02:00:13.796Z,83.58
2023-05-16T02:05:09.621Z,83.68
2023-05-16T02:10:02.710Z,83.68
2023-05-16T02:14:55.513Z,83.61
2023-05-16T02:19:48.466Z,83.76
2023-05-16T02:24:41.375Z,83.55
2023-05-16T02:29:34.506Z,83.56
2023-05-16T02:34:27.507Z,83.50
2023-05-16T02:39:20.507Z,83.49
2023-05-16T02:44:17.286Z,83.53
2023-05-16T02:49:10.135Z,83.38
2023-05-16T02:54:05.181Z,83.60
2023-05-16T02:58:58.049Z,83.59
2023-05-16T03:03:51.442Z,83.74
2023-05-16T03:08:44.447Z,83.51
2023-05-16T03:13:37.286Z,83.43
2023-05-16T03:18:30.213Z,83.50
2023-05-16T03:23:23.208Z,83.29
2023-05-16T03:28:18.275Z,83.56
2023-05-16T03:33:11.127Z,83.57
2023-05-16T03:38:04.483Z,83.51
2023-05-16T03:42:57.328Z,83.57
2023-05-16T03:47:51.071Z,83.13
2023-05-16T03:52:44.084Z,82.62
2023-05-16T03:57:38.823Z,82.57
2023-05-16T04:02:31.669Z,82.55
2023-05-16T04:07:24.635Z,82.54
2023-05-16T04:12:17.446Z,82.54
2023-05-16T04:17:11.245Z,82.67
2023-05-16T04:22:04.302Z,82.51
2023-05-16T04:26:57.095Z,82.57
2023-05-16T04:31:49.916Z,82.59
2023-05-16T04:36:43.172Z,82.37
2023-05-16T04:41:36.326Z,82.32
2023-05-16T04:46:29.188Z,82.24
2023-05-16T04:51:22.230Z,82.03
2023-05-16T04:56:18.184Z,81.93
2023-05-16T05:01:11.162Z,81.66
2023-05-16T05:06:04.731Z,81.50
2023-05-16T05:10:58.066Z,81.24
2023-05-16T05:15:52.451Z,80.96
2023-05-16T05:20:45.662Z,80.72
2023-05-16T05:25:40.009Z,80.45
2023-05-16T05:30:32.858Z,79.96
2023-05-16T05:35:26.123Z,79.56
2023-05-16T05:40:19.373Z,79.20
2023-05-16T05:45:12.612Z,78.68
2023-05-16T05:50:09.422Z,78.30
2023-05-16T05:55:02.988Z,78.08
2023-05-16T05:59:55.814Z,77.54
2023-05-16T06:04:48.735Z,76.85
2023-05-16T06:09:42.745Z,75.48
2023-05-16T06:14:35.547Z,74.99
2023-05-16T06:19:28.546Z,74.14
2023-05-16T06:24:21.375Z,72.54
2023-05-16T06:29:14.173Z,71.99
2023-05-16T06:34:07.001Z,71.87
2023-05-16T06:38:59.853Z,71.51
2023-05-16T06:43:52.881Z,70.68
2023-05-16T06:48:46.074Z,70.57
2023-05-16T06:53:38.947Z,70.11
2023-05-16T06:58:31.984Z,68.95
2023-05-16T07:03:24.963Z,67.44
2023-05-16T07:08:17.938Z,67.29
2023-05-16T07:13:10.873Z,67.33
2023-05-16T07:18:04.017Z,66.40
2023-05-16T07:22:58.051Z,65.79
2023-05-16T07:27:51.189Z,65.04
2023-05-16T07:32:44.467Z,63.98
2023-05-16T07:37:38.424Z,62.57
2023-05-16T07:42:32.215Z,63.62
2023-05-16T07:47:26.042Z,61.77
2023-05-16T07:52:19.037Z,61.62
2023-05-16T07:57:12.447Z,62.41
2023-05-16T08:02:05.582Z,62.40
2023-05-16T08:06:58.427Z,61.91
2023-05-16T08:11:51.259Z,59.02
2023-05-16T08:16:44.138Z,56.10
2023-05-16T08:21:37.359Z,55.74
2023-05-16T08:26:30.798Z,57.11
2023-05-16T08:31:23.986Z,56.85
2023-05-16T08:36:19.793Z,55.10
2023-05-16T08:41:13.331Z,55.54
2023-05-16T08:46:08.846Z,55.94
2023-05-16T08:51:07.647Z,56.75
2023-05-16T08:56:02.040Z,57.04
2023-05-16T09:00:55.912Z,57.61
2023-05-16T09:05:49.180Z,58.40
2023-05-16T09:10:42.021Z,57.64
2023-05-16T09:15:35.537Z,58.27
2023-05-16T09:20:28.493Z,58.85
2023-05-16T09:25:30.375Z,57.97
2023-05-16T09:30:35.417Z,56.64
2023-05-16T09:40:25.565Z,57.74
2023-05-16T09:45:18.641Z,58.83
2023-05-16T09:50:11.818Z,58.34
2023-05-16T09:55:08.611Z,58.22
2023-05-16T10:00:05.649Z,57.65
2023-05-16T10:04:58.456Z,58.17
2023-05-16T10:09:54.029Z,58.51
2023-05-16T10:14:50.543Z,57.31
2023-05-16T10:19:44.350Z,56.70
2023-05-16T10:24:49.418Z,56.13
2023-05-16T10:29:54.186Z,56.15
2023-05-16T10:34:48.346Z,56.03
2023-05-16T10:39:41.939Z,55.98
2023-05-16T10:44:35.375Z,56.33
2023-05-16T10:49:28.980Z,56.20
2023-05-16T10:54:26.611Z,55.57
2023-05-16T10:59:28.621Z,55.32
2023-05-16T11:04:21.509Z,55.08
2023-05-16T11:09:14.344Z,55.08
2023-05-16T11:14:07.537Z,54.72
2023-05-16T11:19:08.276Z,55.17
2023-05-16T11:24:30.097Z,55.33
2023-05-16T11:29:23.484Z,54.49
2023-05-16T11:34:16.434Z,54.27
2023-05-16T11:39:10.712Z,54.19
2023-05-16T11:44:03.596Z,54.26
2023-05-16T11:48:57.234Z,54.48
2023-05-16T11:53:51.133Z,53.90
2023-05-16T11:58:44.536Z,52.82
2023-05-16T12:03:39.312Z,52.24
2023-05-16T12:08:32.895Z,53.04
2023-05-16T12:13:26.645Z,53.06
2023-05-16T12:18:21.480Z,53.42
2023-05-16T12:23:16.480Z,53.77
2023-05-16T12:28:10.294Z,53.95
2023-05-16T12:33:10.586Z,54.08
2023-05-16T12:38:11.870Z,53.65
2023-05-16T12:43:04.751Z,51.67
2023-05-16T12:47:57.866Z,50.45
2023-05-16T12:52:56.458Z,50.51
2023-05-16T12:57:50.772Z,49.71
2023-05-16T13:02:43.718Z,49.17
2023-05-16T13:07:37.247Z,49.27
2023-05-16T13:12:30.066Z,49.32
2023-05-16T13:17:24.078Z,49.71
2023-05-16T13:22:17.095Z,50.57
2023-05-16T13:27:10.016Z,51.46
2023-05-16T13:32:03.085Z,51.50
2023-05-16T13:36:56.168Z,51.22
2023-05-16T13:41:49.708Z,50.54
2023-05-16T13:46:43.362Z,50.52
2023-05-16T13:51:36.601Z,50.22
2023-05-16T13:56:29.889Z,49.31
2023-05-16T14:01:23.471Z,49.46
2023-05-16T14:06:16.354Z,49.68
2023-05-16T14:11:09.290Z,50.18
2023-05-16T14:16:02.550Z,50.19
2023-05-16T14:20:56.674Z,50.40
2023-05-16T14:25:49.663Z,50.71
2023-05-16T14:30:42.480Z,50.57
2023-05-16T14:35:38.474Z,51.39
2023-05-16T14:40:31.453Z,51.09
2023-05-16T14:45:24.365Z,50.97
2023-05-16T14:50:17.498Z,51.09
2023-05-16T14:55:10.388Z,50.91
2023-05-16T15:00:05.707Z,51.16
2023-05-16T15:04:58.640Z,51.41
2023-05-16T15:09:51.644Z,50.80
2023-05-16T15:14:44.908Z,51.05
2023-05-16T15:19:37.939Z,51.34
2023-05-16T15:24:30.919Z,51.71
2023-05-16T15:29:23.764Z,51.50
2023-05-16T15:34:16.637Z,51.62
2023-05-16T15:39:09.544Z,51.42
2023-05-16T15:44:02.374Z,51.91
2023-05-16T15:48:55.226Z,51.86
2023-05-16T15:53:49.060Z,51.58
2023-05-16T15:58:41.867Z,51.94
2023-05-16T16:03:34.879Z,52.12
2023-05-16T16:08:27.839Z,52.08
2023-05-16T16:13:21.376Z,52.18
2023-05-16T16:18:14.799Z,52.37
2023-05-16T16:23:08.363Z,52.55
2023-05-16T16:28:01.229Z,52.56
2023-05-16T16:32:54.184Z,52.53
2023-05-16T16:37:58.318Z,52.81
2023-05-16T16:42:58.957Z,53.05
2023-05-16T16:47:52.576Z,53.48
2023-05-16T16:52:45.682Z,54.75
2023-05-16T16:57:38.532Z,55.21
2023-05-16T17:02:31.462Z,56.12
2023-05-16T17:07:24.298Z,56.61
2023-05-16T17:12:20.557Z,57.13
2023-05-16T17:17:13.625Z,56.90
2023-05-16T17:22:07.758Z,57.54
2023-05-16T17:27:00.615Z,58.12
2023-05-16T17:31:54.699Z,58.47
2023-05-16T17:36:47.546Z,58.87
2023-05-16T17:41:41.210Z,59.30
2023-05-16T17:46:34.990Z,59.40
2023-05-16T17:51:28.277Z,59.82
2023-05-16T17:56:21.174Z,60.18
2023-05-16T18:01:14.428Z,60.72
2023-05-16T18:06:07.529Z,61.13
2023-05-16T18:11:01.031Z,61.33
2023-05-16T18:15:53.968Z,61.76
2023-05-16T18:20:47.369Z,62.38
2023-05-16T18:25:40.203Z,62.53
2023-05-16T18:30:33.155Z,63.10
2023-05-16T18:35:27.790Z,63.53
2023-05-16T18:40:21.606Z,63.76
2023-05-16T18:45:14.514Z,64.18
2023-05-16T18:50:08.545Z,64.41
2023-05-16T18:55:01.611Z,64.42
2023-05-16T18:59:56.181Z,64.92
2023-05-16T19:04:49.114Z,65.22
2023-05-16T19:09:42.169Z,65.52
2023-05-16T19:14:35.037Z,65.74
2023-05-16T19:19:28.004Z,66.10
2023-05-16T19:24:21.035Z,66.12
2023-05-16T19:29:13.945Z,66.19
2023-05-16T19:34:07.166Z,66.30
2023-05-16T19:39:00.155Z,66.63
2023-05-16T19:43:53.253Z,66.78
2023-05-16T19:48:49.711Z,67.18
2023-05-16T19:53:43.054Z,67.18
2023-05-16T19:58:35.917Z,67.60
2023-05-16T20:03:28.930Z,68.01
2023-05-16T20:08:21.974Z,68.14
2023-05-16T20:13:18.717Z,68.21
2023-05-16T20:18:11.688Z,68.44
2023-05-16T20:23:04.924Z,68.59
2023-05-16T20:27:57.928Z,68.54
2023-05-16T20:32:51.096Z,68.70
2023-05-16T20:37:44.125Z,68.81
2023-05-16T20:42:38.172Z,68.98
2023-05-16T20:47:31.289Z,69.19
2023-05-16T20:52:24.525Z,69.43
2023-05-16T20:57:17.858Z,69.44
2023-05-16T21:02:10.967Z,69.76
2023-05-16T21:07:06.801Z,69.78
2023-05-16T21:12:01.600Z,70.00
2023-05-16T21:16:55.627Z,70.02
2023-05-16T21:21:48.733Z,70.35
2023-05-16T21:26:41.743Z,70.43
2023-05-16T21:31:34.622Z,70.61
2023-05-16T21:36:27.538Z,70.69
2023-05-16T21:41:21.755Z,70.62
2023-05-16T21:46:14.793Z,70.61
2023-05-16T21:51:07.694Z,70.99
2023-05-16T21:56:00.566Z,71.15
2023-05-16T22:01:11.889Z,71.29
2023-05-16T22:06:05.148Z,71.22
2023-05-16T22:10:58.008Z,71.30
2023-05-16T22:16:03.281Z,71.46
2023-05-16T22:20:56.758Z,71.72
2023-05-16T22:25:49.737Z,71.81
2023-05-16T22:30:43.181Z,72.13
2023-05-16T22:35:36.096Z,72.53
2023-05-16T22:40:30.968Z,72.82
2023-05-16T22:45:24.312Z,73.02
2023-05-16T22:50:17.325Z,73.13
2023-05-16T22:55:10.413Z,73.35
2023-05-16T23:00:04.723Z,73.54
2023-05-16T23:04:58.635Z,73.77
2023-05-16T23:09:51.662Z,74.02
2023-05-16T23:14:44.527Z,74.39
2023-05-16T23:19:37.444Z,74.47
2023-05-16T23:24:30.344Z,74.71
2023-05-16T23:29:23.194Z,74.90
2023-05-16T23:34:16.047Z,75.01
2023-05-16T23:39:09.227Z,75.24
2023-05-16T23:44:02.105Z,75.37
2023-05-16T23:48:57.315Z,75.56
2023-05-16T23:53:50.258Z,75.79
2023-05-16T23:58:43.134Z,76.05
